Time;durP1;ratioP1;P1;durP2;ratioP2;P2;SDS_P1;SDS_P2;PMS_P1;PMS_P2;Temp;Humidity;BMP_temperature;BMP_pressure;BME280_temperature;BME280_humidity;BME280_pressure;Samples;Min_cycle;Max_cycle;Signal;HPM_P1;HPM_P2
2022/09/02 00:01:28;;;;;;;;;;;;;;;-144.99;79.79;52174.97;5004777;28;19936;-70
2022/09/02 00:03:56;;;;;;;;;;;;;;;-144.99;79.86;52170.91;5012240;28;19925;-71
2022/09/02 00:06:23;;;;;;;;;;;;;;;-144.99;79.82;52174.97;5009976;28;20377;-71
2022/09/02 00:08:50;;;;;;;;;;;;;;;-144.99;79.90;52195.34;5008565;28;19925;-71
2022/09/02 00:11:20;;;;;;;;;;;;;;;-144.99;79.99;52174.97;4998228;28;20206;-71
2022/09/02 00:13:47;;;;;;;;;;;;;;;-144.99;80.02;52179.06;5011851;28;20455;-71
2022/09/02 00:16:13;;;;;;;;;;;;;;;-144.99;79.90;52179.06;5011559;28;20024;-71
2022/09/02 00:18:40;;;;;;;;;;;;;;;-144.99;80.09;52203.50;5004699;28;19977;-71
2022/09/02 00:21:07;;;;;;;;;;;;;;;-144.99;80.10;52183.13;5009223;28;20019;-72
2022/09/02 00:23:33;;;;;;;;;;;;;;;-144.99;80.27;52195.34;5011899;28;19960;-71
2022/09/02 00:26:01;;;;;;;;;;;;;;;-144.99;80.25;52199.44;5011810;28;19934;-71
2022/09/02 00:28:28;;;;;;;;;;;;;;;-144.99;80.52;52179.06;5006276;28;19926;-71
2022/09/02 00:30:54;;;;;;;;;;;;;;;-144.99;80.54;52179.06;5001150;28;19961;-71
2022/09/02 00:33:21;;;;;;;;;;;;;;;-144.99;80.60;52179.06;5011417;28;19925;-71
2022/09/02 00:35:47;;;;;;;;;;;;;;;-144.99;80.66;52183.13;5011058;28;19960;-71
2022/09/02 00:38:13;;;;;;;;;;;;;;;-144.99;80.92;52191.28;5009475;28;20344;-70
2022/09/02 00:40:43;;;;;;;;;;;;;;;-144.99;81.15;52183.13;5008957;28;20020;-71
2022/09/02 00:43:11;;;;;;;;;;;;;;;-144.99;81.73;52174.97;4999836;28;19972;-71
2022/09/02 00:45:38;;;;;;;;;;;;;;;-144.99;81.59;52197.41;5011001;28;20336;-71
2022/09/02 00:48:05;;;;;;;;;;;;;;;-144.99;81.79;52183.13;5009210;28;20324;-70
2022/09/02 00:50:34;;;;;;;;;;;;;;;-144.99;81.93;52166.81;5007488;28;20410;-71
2022/09/02 00:53:04;;;;;;;;;;;;;;;-144.99;82.09;52172.94;5011190;28;19929;-71
2022/09/02 00:55:33;;;;;;;;;;;;;;;-144.99;82.61;52199.44;5012171;28;20495;-70
2022/09/02 00:58:07;;;;;;;;;;;;;;;-144.99;82.60;52193.31;5010226;28;19980;-70
2022/09/02 01:00:37;;;;;;;;;;;;;;;-144.99;83.44;52170.91;5003273;28;20411;-71
2022/09/02 01:03:05;;;;;;;;;;;;;;;-144.99;82.90;52170.91;5006665;28;20413;-71
2022/09/02 01:05:33;;;;;;;;;;;;;;;-144.99;83.13;52179.06;5011394;28;19929;-70
2022/09/02 01:08:00;;;;;;;;;;;;;;;-144.99;83.18;52189.25;5011444;28;19936;-70
2022/09/02 01:10:27;;;;;;;;;;;;;;;-144.99;83.48;52156.63;5006660;28;20017;-70
2022/09/02 01:12:55;;;;;;;;;;;;;;;-144.99;83.66;52162.75;5011145;28;20004;-70
2022/09/02 01:15:21;;;;;;;;;;;;;;;-144.99;83.43;52158.66;5005590;28;20381;-69
2022/09/02 01:17:49;;;;;;;;;;;;;;;-144.99;83.59;52215.75;5006071;28;19926;-70
2022/09/02 01:20:17;;;;;;;;;;;;;;;-144.99;84.04;52170.91;4998698;28;19945;-70
2022/09/02 01:22:45;;;;;;;;;;;;;;;-144.99;83.87;52174.97;5035820;23;20358;-73
2022/09/02 01:25:14;;;;;;;;;;;;;;;-144.99;83.82;52179.06;5003663;28;20464;-72
2022/09/02 01:27:41;;;;;;;;;;;;;;;-144.99;83.78;52199.44;5006946;28;19925;-70
2022/09/02 01:30:09;;;;;;;;;;;;;;;-144.99;83.93;52166.81;4995729;28;20321;-70
2022/09/02 01:32:35;;;;;;;;;;;;;;;-144.99;83.75;52181.09;4995525;28;19926;-70
2022/09/02 01:35:01;;;;;;;;;;;;;;;-144.99;83.97;52158.66;5010070;28;19935;-69
2022/09/02 01:37:28;;;;;;;;;;;;;;;-144.99;83.97;52179.06;5005681;28;19929;-70
2022/09/02 01:39:56;;;;;;;;;;;;;;;-144.99;84.20;52179.06;5005940;28;19972;-70
2022/09/02 01:42:23;;;;;;;;;;;;;;;-144.99;84.73;52185.16;5010049;28;19925;-70
2022/09/02 01:44:49;;;;;;;;;;;;;;;-144.99;84.61;52164.78;5009939;28;19973;-71
2022/09/02 01:47:18;;;;;;;;;;;;;;;-144.99;84.58;52189.25;5006394;28;20314;-71
2022/09/02 01:49:45;;;;;;;;;;;;;;;-144.99;84.34;52215.75;4998461;28;19926;-71
2022/09/02 01:52:12;;;;;;;;;;;;;;;-144.99;84.41;52174.97;4996149;28;19929;-71
2022/09/02 01:54:39;;;;;;;;;;;;;;;-144.99;84.70;52191.28;5009345;28;19945;-71
2022/09/02 01:57:06;;;;;;;;;;;;;;;-144.99;85.14;52134.22;5008736;28;20466;-71
2022/09/02 01:59:33;;;;;;;;;;;;;;;-144.99;85.26;52191.28;5000049;28;20339;-72
2022/09/02 02:01:59;;;;;;;;;;;;;;;-144.99;85.69;52199.44;5008712;28;19934;-70
2022/09/02 02:04:27;;;;;;;;;;;;;;;-144.99;85.85;52179.06;5009290;28;19925;-71
2022/09/02 02:06:54;;;;;;;;;;;;;;;-144.99;86.19;52209.63;5006856;28;19932;-70
2022/09/02 02:09:21;;;;;;;;;;;;;;;-144.99;86.18;52158.66;5003776;28;19932;-71
2022/09/02 02:11:48;;;;;;;;;;;;;;;-144.99;86.25;52170.91;5006384;28;19929;-71
2022/09/02 02:14:16;;;;;;;;;;;;;;;-144.99;86.27;52189.25;5010208;28;19926;-72
2022/09/02 02:16:43;;;;;;;;;;;;;;;-144.99;86.14;52203.50;5009248;28;20012;-72
2022/09/02 02:19:09;;;;;;;;;;;;;;;-144.99;86.32;52170.91;5007765;28;19926;-71
2022/09/02 02:21:36;;;;;;;;;;;;;;;-144.99;86.42;52215.75;4999272;28;19932;-70
2022/09/02 02:24:03;;;;;;;;;;;;;;;-144.99;86.32;52183.13;5009486;28;19930;-71
2022/09/02 02:26:30;;;;;;;;;;;;;;;-144.99;86.44;52199.44;5007029;28;20408;-71
2022/09/02 02:28:56;;;;;;;;;;;;;;;-144.99;87.17;52195.34;5007458;28;19925;-71
2022/09/02 02:31:24;;;;;;;;;;;;;;;-144.99;87.13;52199.44;5002166;28;19925;-70
2022/09/02 02:33:50;;;;;;;;;;;;;;;-144.99;87.55;52199.44;5008945;28;19929;-70
2022/09/02 02:36:17;;;;;;;;;;;;;;;-144.99;87.51;52195.34;5008840;28;20408;-70
2022/09/02 02:38:45;;;;;;;;;;;;;;;-144.99;87.58;52181.09;5008175;28;19933;-69
2022/09/02 02:41:12;;;;;;;;;;;;;;;-144.99;87.84;52232.03;5002624;28;19926;-70
2022/09/02 02:43:38;;;;;;;;;;;;;;;-144.99;87.79;52187.19;4997286;28;20033;-71
2022/09/02 02:46:05;;;;;;;;;;;;;;;-144.99;87.96;52197.41;5009841;28;19932;-70
2022/09/02 02:48:33;;;;;;;;;;;;;;;-144.99;88.46;52187.19;5010615;28;19933;-69
2022/09/02 02:50:59;;;;;;;;;;;;;;;-144.99;88.70;52191.28;5007576;28;20372;-69
2022/09/02 02:53:28;;;;;;;;;;;;;;;-144.99;89.14;52162.75;5007113;28;19926;-69
2022/09/02 02:55:54;;;;;;;;;;;;;;;-144.99;89.34;52195.34;5008353;28;19962;-69
2022/09/02 02:58:21;;;;;;;;;;;;;;;-144.99;89.65;52170.91;5009352;28;19927;-68
2022/09/02 03:00:48;;;;;;;;;;;;;;;-144.99;90.46;52225.94;4999980;28;20456;-68
2022/09/02 03:03:18;;;;;;;;;;;;;;;-144.99;90.67;52195.34;5005335;28;19948;-69
2022/09/02 03:05:46;;;;;;;;;;;;;;;-144.99;90.98;52195.34;5001673;28;19925;-71
2022/09/02 03:08:13;;;;;;;;;;;;;;;-144.99;91.19;52187.19;5008043;28;19926;-70
2022/09/02 03:10:40;;;;;;;;;;;;;;;-144.99;91.01;52203.50;5010661;28;19925;-70
2022/09/02 03:13:08;;;;;;;;;;;;;;;-144.99;91.16;52238.16;5005104;28;20487;-71
2022/09/02 03:15:35;;;;;;;;;;;;;;;-144.99;91.51;52177.00;5012606;28;19979;-71
2022/09/02 03:18:01;;;;;;;;;;;;;;;-144.99;91.63;52215.75;5008921;28;20004;-70
2022/09/02 03:20:27;;;;;;;;;;;;;;;-144.99;92.08;52215.75;5010394;28;19933;-70
2022/09/02 03:22:57;;;;;;;;;;;;;;;-144.99;92.21;52197.41;5005125;28;19926;-70
2022/09/02 03:25:25;;;;;;;;;;;;;;;-144.99;92.09;52174.97;5010301;28;20349;-70
2022/09/02 03:27:51;;;;;;;;;;;;;;;-144.99;92.36;52199.44;5012132;28;19939;-70
2022/09/02 03:30:20;;;;;;;;;;;;;;;-144.99;92.66;52232.03;5012048;28;19964;-70
2022/09/02 03:32:47;;;;;;;;;;;;;;;-144.99;93.13;52195.34;4999811;28;20563;-70
2022/09/02 03:35:14;;;;;;;;;;;;;;;-144.99;93.56;52223.88;5010433;28;19935;-71
2022/09/02 03:37:41;;;;;;;;;;;;;;;-144.99;93.89;52174.97;5012304;28;19925;-71
2022/09/02 03:40:11;;;;;;;;;;;;;;;-144.99;93.68;52217.78;5012327;28;20385;-72
2022/09/02 03:42:37;;;;;;;;;;;;;;;-144.99;93.39;52177.00;5009954;28;19953;-70
2022/09/02 03:45:05;;;;;;;;;;;;;;;-144.99;93.57;52232.03;5005224;28;19949;-72
2022/09/02 03:47:31;;;;;;;;;;;;;;;-144.99;93.76;52217.78;5011945;28;19960;-72
2022/09/02 03:49:57;;;;;;;;;;;;;;;-144.99;94.31;52203.50;5011772;28;19932;-72
2022/09/02 03:52:24;;;;;;;;;;;;;;;-144.99;94.25;52207.59;5000474;28;20337;-72
2022/09/02 03:54:51;;;;;;;;;;;;;;;-144.99;94.74;52195.34;5001998;28;20320;-71
2022/09/02 03:57:21;;;;;;;;;;;;;;;-144.99;94.75;52199.44;5011876;28;19925;-71
2022/09/02 03:59:48;;;;;;;;;;;;;;;-144.99;94.50;52207.59;5007285;28;19968;-71
2022/09/02 04:02:14;;;;;;;;;;;;;;;-144.99;95.27;52211.66;5003557;28;19932;-71
2022/09/02 04:04:41;;;;;;;;;;;;;;;-144.99;94.87;52219.81;5005001;28;19934;-71
2022/09/02 04:07:07;;;;;;;;;;;;;;;-144.99;94.80;52187.19;5007139;28;19925;-70
2022/09/02 04:09:34;;;;;;;;;;;;;;;-144.99;95.67;52238.16;5000924;28;19980;-69
2022/09/02 04:12:00;;;;;;;;;;;;;;;-144.99;96.48;52195.34;5010300;28;20008;-70
2022/09/02 04:14:28;;;;;;;;;;;;;;;-144.99;96.04;52179.06;5011943;28;20532;-69
2022/09/02 04:16:54;;;;;;;;;;;;;;;-144.99;96.02;52199.44;5010877;28;19925;-72
2022/09/02 04:19:21;;;;;;;;;;;;;;;-144.99;95.73;52191.28;5010706;28;19995;-74
2022/09/02 04:21:47;;;;;;;;;;;;;;;-144.99;96.97;52217.78;5010595;28;20016;-74
2022/09/02 04:24:13;;;;;;;;;;;;;;;-144.99;97.03;52191.28;4995160;28;20104;-74
2022/09/02 04:26:40;;;;;;;;;;;;;;;-144.99;97.41;52227.97;5011460;28;20356;-74
2022/09/02 04:29:06;;;;;;;;;;;;;;;-144.99;97.13;52219.81;5011998;28;19937;-75
2022/09/02 04:31:35;;;;;;;;;;;;;;;-144.99;96.97;52195.34;5004889;28;19930;-74
2022/09/02 04:34:01;;;;;;;;;;;;;;;-144.99;96.54;52223.88;4995228;28;20357;-75
2022/09/02 04:36:28;;;;;;;;;;;;;;;-144.99;96.89;52227.97;5011227;28;19925;-75
2022/09/02 04:38:55;;;;;;;;;;;;;;;-144.99;96.56;52181.09;5012101;28;19932;-75
2022/09/02 04:41:23;;;;;;;;;;;;;;;-144.99;96.00;52260.56;5006897;28;20015;-74
2022/09/02 04:43:50;;;;;;;;;;;;;;;-144.99;95.81;52195.34;4999578;28;19972;-74
2022/09/02 04:46:16;;;;;;;;;;;;;;;-144.99;95.80;52166.81;5011091;28;19925;-75
2022/09/02 04:48:46;;;;;;;;;;;;;;;-144.99;96.11;52207.59;5012030;28;20020;-76
2022/09/02 04:51:13;;;;;;;;;;;;;;;-144.99;95.96;52160.72;5010471;28;20300;-79
2022/09/02 04:53:40;;;;;;;;;;;;;;;-144.99;95.27;52174.97;5012016;28;20312;-77
2022/09/02 04:56:08;;;;;;;;;;;;;;;-144.99;94.73;52191.28;5022873;28;19976;-78
2022/09/02 04:58:35;;;;;;;;;;;;;;;-144.99;94.04;52199.44;5012445;28;19926;-79
2022/09/02 05:01:05;;;;;;;;;;;;;;;-144.99;92.95;52183.13;4997608;28;19939;-75
2022/09/02 05:03:31;;;;;;;;;;;;;;;-144.99;91.84;52195.34;5009350;28;20012;-76
2022/09/02 05:06:00;;;;;;;;;;;;;;;-144.99;90.40;52179.06;4317799;28;10000689;-75
2022/09/02 05:08:26;;;;;;;;;;;;;;;-144.99;89.93;52134.22;5002915;28;19930;-74
2022/09/02 05:10:53;;;;;;;;;;;;;;;-144.99;89.93;52211.66;4997372;28;20024;-74
2022/09/02 05:13:19;;;;;;;;;;;;;;;-144.99;89.51;52170.91;4999776;28;20600;-75
2022/09/02 05:15:46;;;;;;;;;;;;;;;-144.99;89.06;52203.50;4998030;28;19984;-75
2022/09/02 05:18:12;;;;;;;;;;;;;;;-144.99;88.65;52203.50;5002729;28;19929;-75
2022/09/02 05:20:39;;;;;;;;;;;;;;;-144.99;88.50;52158.66;5008080;28;19930;-74
2022/09/02 05:23:07;;;;;;;;;;;;;;;-144.99;88.57;52187.19;5003032;28;19926;-75
2022/09/02 05:25:33;;;;;;;;;;;;;;;-144.99;87.84;52187.19;5007464;28;20440;-75
2022/09/02 05:28:00;;;;;;;;;;;;;;;-144.99;87.80;52158.66;5007895;28;19925;-75
2022/09/02 05:30:26;;;;;;;;;;;;;;;-144.99;87.57;52187.19;5007624;28;20320;-75
2022/09/02 05:32:53;;;;;;;;;;;;;;;-144.99;87.09;52183.13;4997090;28;19936;-73
2022/09/02 05:35:19;;;;;;;;;;;;;;;-144.99;86.80;52170.91;4997168;28;20039;-75
2022/09/02 05:37:45;;;;;;;;;;;;;;;-144.99;86.05;52189.25;5001059;28;20028;-75
2022/09/02 05:40:13;;;;;;;;;;;;;;;-144.99;85.64;52162.75;5004569;28;19935;-76
2022/09/02 05:42:40;;;;;;;;;;;;;;;-144.99;85.52;52134.22;5006163;28;19939;-75
2022/09/02 05:45:07;;;;;;;;;;;;;;;-144.99;85.10;52187.19;5001608;28;19935;-74
2022/09/02 05:47:34;;;;;;;;;;;;;;;-144.99;84.91;52170.91;5003512;28;20654;-75
2022/09/02 05:50:01;;;;;;;;;;;;;;;-144.99;84.63;52174.97;5006811;28;20024;-74
2022/09/02 05:52:27;;;;;;;;;;;;;;;-144.99;84.52;52174.97;5005997;28;19925;-74
2022/09/02 05:54:54;;;;;;;;;;;;;;;-144.99;83.80;52154.59;5002862;28;20016;-75
2022/09/02 05:57:22;;;;;;;;;;;;;;;-144.99;82.80;52168.84;4996121;28;20308;-74
2022/09/02 05:59:54;;;;;;;;;;;;;;;-144.99;82.67;52211.66;5008214;28;19939;-73
2022/09/02 06:02:22;;;;;;;;;;;;;;;-144.99;81.70;52197.41;5030494;28;19921;-74
2022/09/02 06:04:49;;;;;;;;;;;;;;;-144.99;81.49;52154.59;5022170;28;19949;-74
2022/09/02 06:07:16;;;;;;;;;;;;;;;-144.99;81.34;52162.75;5030483;28;19941;-75
2022/09/02 06:09:43;;;;;;;;;;;;;;;-144.99;81.10;52170.91;5031619;28;19926;-75
2022/09/02 06:12:10;;;;;;;;;;;;;;;-144.99;80.47;52126.06;5036310;28;19909;-76
2022/09/02 06:14:38;;;;;;;;;;;;;;;-144.99;80.20;52146.44;5034238;28;19981;-74
2022/09/02 06:17:05;;;;;;;;;;;;;;;-144.99;79.82;52115.88;5005128;28;20393;-75
2022/09/02 06:19:32;;;;;;;;;;;;;;;-144.99;79.10;52146.44;5009900;28;19932;-76
2022/09/02 06:21:59;;;;;;;;;;;;;;;-144.99;78.15;52146.44;5001925;28;20408;-75
2022/09/02 06:24:26;;;;;;;;;;;;;;;-144.99;77.42;52113.84;5002349;28;19925;-76
2022/09/02 06:26:53;;;;;;;;;;;;;;;-144.99;77.30;52146.44;5001055;28;20028;-75
2022/09/02 06:29:19;;;;;;;;;;;;;;;-144.99;77.06;52166.81;5003573;28;19933;-75
2022/09/02 06:31:48;;;;;;;;;;;;;;;-144.99;76.48;52126.06;5000515;28;19936;-75
2022/09/02 06:34:15;;;;;;;;;;;;;;;-144.99;75.70;52160.72;4999515;28;20016;-74
2022/09/02 06:36:42;;;;;;;;;;;;;;;-144.99;75.57;52154.59;4996026;28;19929;-74
2022/09/02 06:39:10;;;;;;;;;;;;;;;-144.99;75.80;52154.59;5001995;28;20673;-74
2022/09/02 06:41:42;;;;;;;;;;;;;;;-144.99;75.08;52199.44;4808525;28;10000021;-73
2022/09/02 06:44:09;;;;;;;;;;;;;;;-144.99;73.93;52142.38;5008425;28;19926;-74
2022/09/02 06:46:37;;;;;;;;;;;;;;;-144.99;73.27;52158.66;5007337;28;19929;-75
2022/09/02 06:49:06;;;;;;;;;;;;;;;-144.99;72.93;52146.44;5002340;28;19929;-75
2022/09/02 06:51:33;;;;;;;;;;;;;;;-144.99;72.44;52117.91;5002779;28;20001;-74
2022/09/02 06:54:00;;;;;;;;;;;;;;;-144.99;71.83;52162.75;5012149;28;20427;-75
2022/09/02 06:56:27;;;;;;;;;;;;;;;-144.99;72.03;52121.97;5010757;28;20000;-74
2022/09/02 06:58:53;;;;;;;;;;;;;;;-144.99;71.48;52154.59;5022359;28;19932;-74
2022/09/02 07:01:21;;;;;;;;;;;;;;;-144.99;71.44;52105.69;5023916;28;19992;-74
2022/09/02 07:06:36;;;;;;;;;;;;;;;-144.99;69.90;52089.38;5007761;28;20029;-75
2022/09/02 07:09:03;;;;;;;;;;;;;;;-144.99;69.01;52134.22;5022629;28;20020;-73
2022/09/02 07:11:30;;;;;;;;;;;;;;;-144.99;67.91;52115.88;5020086;28;19925;-76
2022/09/02 07:13:59;;;;;;;;;;;;;;;-144.99;66.32;52126.06;5010156;28;19972;-76
2022/09/02 07:16:25;;;;;;;;;;;;;;;-144.99;66.65;52124.03;5021277;28;19929;-75
2022/09/02 07:18:52;;;;;;;;;;;;;;;-144.99;65.62;52124.03;5020819;28;19932;-76
2022/09/02 07:21:18;;;;;;;;;;;;;;;-144.99;65.37;52109.75;5011099;28;19979;-75
2022/09/02 07:23:46;;;;;;;;;;;;;;;-144.99;65.13;52109.75;5010772;28;19964;-76
2022/09/02 07:26:13;;;;;;;;;;;;;;;-144.99;64.59;52124.03;5007368;28;20405;-76
2022/09/02 07:28:39;;;;;;;;;;;;;;;-144.99;63.93;52101.59;5004606;28;20017;-76
2022/09/02 07:31:07;;;;;;;;;;;;;;;-144.99;63.13;52142.38;5007874;28;19970;-75
2022/09/02 07:33:35;;;;;;;;;;;;;;;-144.99;62.98;52109.75;4998336;28;19929;-74
2022/09/02 07:36:03;;;;;;;;;;;;;;;-144.99;62.22;52113.84;5007718;28;19940;-74
2022/09/02 07:38:30;;;;;;;;;;;;;;;-144.99;60.91;52064.91;5001322;28;20006;-75
2022/09/02 07:40:59;;;;;;;;;;;;;;;-144.99;60.57;52101.59;4997250;28;19937;-75
2022/09/02 07:43:26;;;;;;;;;;;;;;;-144.99;59.40;52109.75;5006447;28;20016;-75
2022/09/02 07:45:54;;;;;;;;;;;;;;;-144.99;58.67;52105.69;5007793;28;19936;-74
2022/09/02 07:48:20;;;;;;;;;;;;;;;-144.99;57.78;52071.03;5000458;28;19936;-76
2022/09/02 07:50:47;;;;;;;;;;;;;;;-144.99;56.83;52101.59;5003210;28;20020;-75
2022/09/02 07:53:14;;;;;;;;;;;;;;;-144.99;56.17;52093.44;4997999;28;19925;-75
2022/09/02 07:55:40;;;;;;;;;;;;;;;-144.99;55.72;52109.75;4996987;28;20701;-74
2022/09/02 07:58:08;;;;;;;;;;;;;;;-144.99;55.05;52081.22;5008128;28;19929;-74
2022/09/02 08:00:35;;;;;;;;;;;;;;;-144.99;54.65;52103.66;5003437;28;19925;-75
2022/09/02 08:03:01;;;;;;;;;;;;;;;-144.99;54.38;52089.38;5009774;28;20389;-73
2022/09/02 08:05:28;;;;;;;;;;;;;;;-144.99;53.17;52073.06;5009601;28;19936;-75
2022/09/02 08:07:55;;;;;;;;;;;;;;;-144.99;53.03;52081.22;5000049;28;19980;-74
2022/09/02 08:10:25;;;;;;;;;;;;;;;-144.99;52.33;52052.69;5004387;28;20397;-75
2022/09/02 08:12:52;;;;;;;;;;;;;;;-144.99;51.77;52109.75;4996094;28;20008;-74
2022/09/02 08:15:21;;;;;;;;;;;;;;;-144.99;51.41;52056.78;5009213;28;19925;-74
2022/09/02 08:17:49;;;;;;;;;;;;;;;-144.99;51.15;52060.84;5009361;28;20363;-74
2022/09/02 08:20:16;;;;;;;;;;;;;;;-144.99;49.90;52066.97;5005919;28;19929;-73
2022/09/02 08:22:43;;;;;;;;;;;;;;;-144.99;49.85;52087.34;5002278;28;20563;-74
2022/09/02 08:25:10;;;;;;;;;;;;;;;-144.99;49.65;52056.78;4996164;28;20028;-73
2022/09/02 08:27:37;;;;;;;;;;;;;;;-144.99;49.29;52073.06;5008849;28;20021;-75
2022/09/02 08:30:04;;;;;;;;;;;;;;;-144.99;48.48;52081.22;4999137;28;20241;-74
2022/09/02 08:32:32;;;;;;;;;;;;;;;-144.99;48.18;52052.69;5007012;28;20447;-75
2022/09/02 08:35:01;;;;;;;;;;;;;;;-144.99;47.92;52062.88;5009316;28;19926;-74
2022/09/02 08:37:27;;;;;;;;;;;;;;;-144.99;47.27;52077.16;5007882;28;20436;-75
2022/09/02 08:39:54;;;;;;;;;;;;;;;-144.99;46.63;52040.47;4996905;28;19936;-76
2022/09/02 08:42:22;;;;;;;;;;;;;;;-144.99;46.10;52069.00;5001105;28;19952;-75
2022/09/02 08:44:49;;;;;;;;;;;;;;;-144.99;45.90;52038.44;5013227;28;19930;-78
2022/09/02 08:47:18;;;;;;;;;;;;;;;-144.99;45.96;52081.22;5010475;28;19949;-74
2022/09/02 08:49:48;;;;;;;;;;;;;;;-144.99;45.83;52044.53;5009984;28;20573;-75
2022/09/02 08:52:19;;;;;;;;;;;;;;;-144.99;44.92;52003.78;5001196;28;19930;-75
2022/09/02 08:54:48;;;;;;;;;;;;;;;-144.99;44.55;52038.44;5000690;28;19969;-75
2022/09/02 08:57:14;;;;;;;;;;;;;;;-144.99;44.82;52034.34;5009811;28;20001;-76
2022/09/02 08:59:42;;;;;;;;;;;;;;;-144.99;44.23;52024.16;5007760;28;20404;-75
2022/09/02 09:02:16;;;;;;;;;;;;;;;-144.99;44.24;52032.31;5004271;28;20610;-75
2022/09/02 09:04:53;;;;;;;;;;;;;;;-144.99;43.82;52036.38;5009034;28;19930;-76
2022/09/02 09:07:26;;;;;;;;;;;;;;;-144.99;44.57;52044.53;4996620;28;19929;-75
2022/09/02 09:09:59;;;;;;;;;;;;;;;-144.99;43.96;52064.91;5007455;28;19929;-74
2022/09/02 09:12:29;;;;;;;;;;;;;;;-144.99;43.69;52007.84;5002888;28;19941;-75
2022/09/02 09:15:03;;;;;;;;;;;;;;;-144.99;43.79;52048.63;5001027;28;19926;-77
2022/09/02 09:17:32;;;;;;;;;;;;;;;-144.99;43.29;52038.44;5012956;28;20040;-76
2022/09/02 09:20:03;;;;;;;;;;;;;;;-144.99;42.66;52056.78;5013763;28;20000;-76
2022/09/02 09:22:31;;;;;;;;;;;;;;;-144.99;42.82;52024.16;5005344;28;20646;-77
2022/09/02 09:24:57;;;;;;;;;;;;;;;-144.99;43.00;51975.25;5007159;28;20012;-76
2022/09/02 09:27:24;;;;;;;;;;;;;;;-144.99;42.21;52028.22;5011496;28;19929;-75
2022/09/02 09:29:51;;;;;;;;;;;;;;;-144.99;41.37;52034.34;5008792;28;19940;-76
2022/09/02 09:32:22;;;;;;;;;;;;;;;-144.99;41.51;51997.66;4999787;28;19978;-75
2022/09/02 09:34:58;;;;;;;;;;;;;;;-144.99;40.97;51999.69;5009992;28;19936;-75
2022/09/02 09:37:30;;;;;;;;;;;;;;;-144.99;40.60;52016.00;5010878;28;20004;-76
2022/09/02 09:39:57;;;;;;;;;;;;;;;-144.99;40.07;52003.78;5010768;28;20420;-76
2022/09/02 09:42:30;;;;;;;;;;;;;;;-144.99;39.28;51987.47;5005010;28;20467;-75
2022/09/02 09:44:56;;;;;;;;;;;;;;;-144.99;39.17;51973.22;5004588;28;19945;-75
2022/09/02 09:47:24;;;;;;;;;;;;;;;-144.99;38.77;51956.91;5009873;28;19976;-75
2022/09/02 09:49:51;;;;;;;;;;;;;;;-144.99;38.74;51967.09;5008476;28;20455;-76
2022/09/02 09:52:24;;;;;;;;;;;;;;;-144.99;38.74;52028.22;5002850;28;19936;-76
2022/09/02 09:55:06;;;;;;;;;;;;;;;-144.99;38.25;51975.25;5001584;28;19975;-76
2022/09/02 09:57:34;;;;;;;;;;;;;;;-144.99;38.02;51971.16;5009762;28;20016;-77
2022/09/02 10:00:02;;;;;;;;;;;;;;;-144.99;38.17;51999.69;5006516;28;19936;-78
2022/09/02 10:02:29;;;;;;;;;;;;;;;-144.99;37.83;51938.56;5013774;28;19929;-77
2022/09/02 10:05:09;;;;;;;;;;;;;;;-144.99;37.51;51960.97;5007998;28;20024;-77
2022/09/02 10:07:37;;;;;;;;;;;;;;;-144.99;37.48;51983.41;5001434;28;20496;-76
2022/09/02 10:10:14;;;;;;;;;;;;;;;-144.99;37.38;52005.81;5010675;28;20719;-76
2022/09/02 10:12:43;;;;;;;;;;;;;;;-144.99;37.98;51983.41;5013782;28;19937;-76
2022/09/02 10:15:09;;;;;;;;;;;;;;;-144.99;37.84;51963.03;5013213;28;19935;-77
2022/09/02 10:17:39;;;;;;;;;;;;;;;-144.99;37.65;51991.56;5011030;28;19964;-78
2022/09/02 10:20:11;;;;;;;;;;;;;;;-144.99;37.05;51991.56;5021260;28;19926;-76
2022/09/02 10:22:48;;;;;;;;;;;;;;;-144.99;36.28;51922.25;5020228;28;20421;-78
2022/09/02 10:25:22;;;;;;;;;;;;;;;-144.99;36.38;51958.94;5005032;28;19929;-78
2022/09/02 10:27:54;;;;;;;;;;;;;;;-144.99;36.20;51918.19;5017252;28;19932;-76
2022/09/02 10:30:21;;;;;;;;;;;;;;;-144.99;36.30;51918.19;5013666;28;19933;-77
2022/09/02 10:33:09;;;;;;;;;;;;;;;-144.99;35.81;51897.81;5018994;28;19929;-76
2022/09/02 10:35:40;;;;;;;;;;;;;;;-144.99;35.46;51930.41;5012694;28;19960;-76
2022/09/02 10:38:12;;;;;;;;;;;;;;;-144.99;35.26;51848.91;5015642;28;20281;-77
2022/09/02 10:40:44;;;;;;;;;;;;;;;-144.99;35.57;51891.69;5025249;28;20510;-77
2022/09/02 10:43:23;;;;;;;;;;;;;;;-144.99;35.17;51885.56;5015919;28;19929;-78
2022/09/02 10:45:50;;;;;;;;;;;;;;;-144.99;35.45;51848.91;5014419;28;20853;-77
2022/09/02 10:48:28;;;;;;;;;;;;;;;-144.99;34.76;51848.91;5016833;28;19929;-76
2022/09/02 10:50:55;;;;;;;;;;;;;;;-144.99;34.08;51846.84;5006225;28;19936;-76
2022/09/02 10:53:30;;;;;;;;;;;;;;;-144.99;33.86;51824.44;5015223;28;19929;-76
2022/09/02 10:55:59;;;;;;;;;;;;;;;-144.99;33.08;51793.88;5014824;28;20044;-76
2022/09/02 10:58:33;;;;;;;;;;;;;;;-144.99;32.59;51767.38;5008263;28;19976;-76
2022/09/02 11:00:59;;;;;;;;;;;;;;;-144.99;32.25;51810.16;5010472;28;19929;-77
2022/09/02 11:03:29;;;;;;;;;;;;;;;-144.99;32.64;51781.63;5017179;28;19935;-76
2022/09/02 11:05:58;;;;;;;;;;;;;;;-144.99;32.30;51771.44;5012820;28;19953;-77
2022/09/02 11:08:30;;;;;;;;;;;;;;;-144.99;31.89;51771.44;5021458;28;20005;-75
2022/09/02 11:11:00;;;;;;;;;;;;;;;-144.99;32.08;51777.56;5030405;28;20021;-75
2022/09/02 11:13:35;;;;;;;;;;;;;;;-144.99;31.85;51787.75;5030358;28;19925;-76
2022/09/02 11:16:04;;;;;;;;;;;;;;;-144.99;31.63;51755.16;5026989;28;19968;-77
2022/09/02 11:18:34;;;;;;;;;;;;;;;-144.99;31.25;51755.16;5017619;28;19929;-76
2022/09/02 11:21:03;;;;;;;;;;;;;;;-144.99;32.01;51926.34;5016657;28;20020;-78
2022/09/02 11:23:35;;;;;;;;;;;;;;;-144.99;32.35;51787.75;5020036;28;19926;-78
2022/09/02 11:26:04;;;;;;;;;;;;;;;-144.99;32.04;51698.09;5011354;28;20032;-77
2022/09/02 11:28:36;;;;;;;;;;;;;;;-144.99;31.89;51910.03;5007301;28;19937;-77
2022/09/02 11:31:05;;;;;;;;;;;;;;;-144.99;32.24;51812.22;5004535;28;19997;-77
2022/09/02 11:33:38;;;;;;;;;;;;;;;-144.99;32.59;51793.88;5011082;28;19933;-77
2022/09/02 11:36:04;;;;;;;;;;;;;;;-144.99;32.61;51991.56;5009227;28;19980;-76
2022/09/02 11:38:34;;;;;;;;;;;;;;;-144.99;32.99;51963.03;5001324;28;19929;-75
2022/09/02 11:41:18;;;;;;;;;;;;;;;-144.99;33.16;52007.84;5014540;28;19934;-79
2022/09/02 11:43:48;;;;;;;;;;;;;;;-144.99;33.23;51824.44;5009907;28;19925;-78
2022/09/02 11:46:45;;;;;;;;;;;;;;;-144.99;32.70;51928.38;5013651;28;19925;-78
2022/09/02 11:49:24;;;;;;;;;;;;;;;-144.99;33.00;52026.19;4947538;29;19935;-77
2022/09/02 11:52:05;;;;;;;;;;;;;;;-144.99;32.99;51808.13;4996842;28;19929;-77
2022/09/02 11:54:34;;;;;;;;;;;;;;;-144.99;32.39;51820.38;5012058;28;20385;-78
2022/09/02 11:57:03;;;;;;;;;;;;;;;-144.99;32.33;51954.88;5011666;28;20308;-77
2022/09/02 11:59:48;;;;;;;;;;;;;;;-144.99;32.85;51975.25;5001396;28;19981;-78
2022/09/02 12:02:32;;;;;;;;;;;;;;;-144.99;33.62;52026.19;5011537;28;19988;-76
2022/09/02 12:05:29;;;;;;;;;;;;;;;-144.99;33.87;52052.69;5011061;28;19976;-75
2022/09/02 12:07:58;;;;;;;;;;;;;;;-144.99;34.53;52052.69;5008427;28;19944;-77
2022/09/02 12:10:44;;;;;;;;;;;;;;;-144.99;34.52;51914.09;5006210;28;19936;-76
2022/09/02 12:13:11;;;;;;;;;;;;;;;-144.99;34.33;52056.78;5012830;28;19926;-76
2022/09/02 12:15:39;;;;;;;;;;;;;;;-144.99;34.00;52016.00;5011581;28;19933;-76
2022/09/02 12:18:10;;;;;;;;;;;;;;;-144.99;34.45;52016.00;5008570;28;19930;-77
2022/09/02 12:21:06;;;;;;;;;;;;;;;-144.99;34.26;52056.78;5002767;28;20004;-77
2022/09/02 12:23:51;;;;;;;;;;;;;;;-144.99;34.10;51850.94;4996928;28;19969;-76
2022/09/02 12:26:20;;;;;;;;;;;;;;;-144.99;34.19;51824.44;5008288;28;19984;-76
2022/09/02 12:28:47;;;;;;;;;;;;;;;-144.99;33.66;51808.13;5002741;28;19930;-77
2022/09/02 12:31:17;;;;;;;;;;;;;;;-144.99;33.16;51830.56;4998939;28;19929;-76
2022/09/02 12:33:44;;;;;;;;;;;;;;;-144.99;32.61;51808.13;5004503;28;19936;-77
2022/09/02 12:36:26;;;;;;;;;;;;;;;-144.99;32.35;51873.34;5009919;28;19929;-77